Time;durP1;ratioP1;P1;durP2;ratioP2;P2;SDS_P1;SDS_P2;PMS_P1;PMS_P2;Temp;Humidity;BMP_temperature;BMP_pressure;BME280_temperature;BME280_humidity;BME280_pressure;Samples;Min_cycle;Max_cycle;Signal;HPM_P1;HPM_P2
2021/07/10 07:02:26;;;;;;;;;;;;;;;;;;1594417;23;20185;-94
2021/07/10 07:04:58;;;;;;;;;;;;;;;;;;4953982;29;19926;-92
2021/07/10 07:07:26;;;;;;;;;;;;;;;;;;4957472;28;19926;-89
2021/07/10 07:09:54;;;;;;;;;;;;;;;;;;4936944;28;19930;-90
2021/07/10 07:12:22;;;;;;;;;;;;;;;;;;4921081;29;19927;-93
2021/07/10 07:14:51;;;;;;;;;;;;;;;;;;4939260;29;19934;-90
2021/07/10 07:17:19;;;;;;;;;;;;;;;;;;4928306;29;19946;-90
2021/07/10 07:19:47;;;;;;;;;;;;;;;;;;4956398;28;19930;-89
2021/07/10 07:22:17;;;;;;;;;;;;;;;;;;4941156;28;19934;-93
2021/07/10 07:24:45;;;;;;;;;;;;;;;;;;4927131;29;19934;-93
2021/07/10 07:27:14;;;;;;;;;;;;;;;;;;4940724;29;19931;-94
2021/07/10 07:30:08;;;;;;;;;;;;;;;;;;4943432;28;19934;-94
2021/07/10 07:32:37;;;;;;;;;;;;;;;;;;4950086;28;19911;-94
2021/07/10 07:35:06;;;;;;;;;;;;;;;;;;4957242;28;19927;-93
2021/07/10 07:37:37;;;;;;;;;;;;;;;;;;4960632;28;19911;-94
2021/07/10 07:40:06;;;;;;;;;;;;;;;;;;4940157;29;19927;-94
2021/07/10 07:42:34;;;;;;;;;;;;;;;;;;4926120;28;19931;-93
2021/07/10 07:45:03;;;;;;;;;;;;;;;;;;4924522;28;19926;-93
2021/07/10 07:47:33;;;;;;;;;;;;;;;;;;4939758;29;19927;-93
2021/07/10 07:50:02;;;;;;;;;;;;;;;;;;4941147;28;19938;-92
2021/07/10 07:52:30;;;;;;;;;;;;;;;;;;4936505;28;19928;-91
2021/07/10 07:55:00;;;;;;;;;;;;;;;;;;4936368;29;19927;-91
2021/07/10 07:57:28;;;;;;;;;;;;;;;;;;4920058;29;19931;-90
2021/07/10 07:59:56;;;;;;;;;;;;;;;;;;4928532;28;19927;-92
2021/07/10 08:02:25;;;;;;;;;;;;;;;;;;4952066;28;19934;-91
2021/07/10 08:04:53;;;;;;;;;;;;;;;;;;4934956;29;19926;-92
2021/07/10 08:07:21;;;;;;;;;;;;;;;;;;4936407;29;19926;-91
2021/07/10 08:09:49;;;;;;;;;;;;;;;;;;4933666;29;19926;-90
2021/07/10 08:12:19;;;;;;;;;;;;;;;;;;4913743;29;19927;-90
2021/07/10 08:14:47;;;;;;;;;;;;;;;;;;4920665;29;19934;-91
2021/07/10 08:17:15;;;;;;;;;;;;;;;;;;4938130;29;19949;-90
2021/07/10 08:19:44;;;;;;;;;;;;;;;;;;4917163;29;19934;-90
2021/07/10 08:22:12;;;;;;;;;;;;;;;;;;4935633;29;19934;-89
2021/07/10 08:24:40;;;;;;;;;;;;;;;;;;4922903;29;19927;-91
2021/07/10 08:27:11;;;;;;;;;;;;;;;;;;4932841;29;19927;-90
2021/07/10 08:29:42;;;;;;;;;;;;;;;;;;4935610;29;20312;-91
2021/07/10 08:32:10;;;;;;;;;;;;;;;;;;4926539;29;19927;-90
2021/07/10 08:34:39;;;;;;;;;;;;;;;;;;4934513;29;19933;-92
2021/07/10 08:37:07;;;;;;;;;;;;;;;;;;4931961;29;19935;-90
2021/07/10 08:39:35;;;;;;;;;;;;;;;;;;4925601;29;19931;-90
2021/07/10 08:42:03;;;;;;;;;;;;;;;;;;4934438;29;20393;-91
2021/07/10 08:44:32;;;;;;;;;;;;;;;;;;4919900;29;20384;-90
2021/07/10 08:47:02;;;;;;;;;;;;;;;;;;4935208;29;19927;-92
2021/07/10 08:49:31;;;;;;;;;;;;;;;;;;4926755;29;19927;-90
2021/07/10 08:52:00;;;;;;;;;;;;;;;;;;4913214;29;19927;-90
2021/07/10 08:54:28;;;;;;;;;;;;;;;;;;4924000;29;19934;-90
2021/07/10 08:56:56;;;;;;;;;;;;;;;;;;4920073;29;19927;-91
2021/07/10 08:59:25;;;;;;;;;;;;;;;;;;4933963;29;19934;-91
2021/07/10 09:01:55;;;;;;;;;;;;;;;;;;4902358;29;20405;-90
2021/07/10 09:04:25;;;;;;;;;;;;;;;;;;4900753;29;19953;-91
2021/07/10 09:06:59;;;;;;;;;;;;;;;;;;4935332;29;20393;-89
2021/07/10 09:09:43;;;;;;;;;;;;;;;;;;4934937;29;20451;-90
2021/07/10 09:12:27;;;;;;;;;;;;;;;;;;4908951;29;19927;-90
2021/07/10 09:15:08;;;;;;;;;;;;;;;;;;4918574;29;19938;-92
2021/07/10 09:17:45;;;;;;;;;;;;;;;;;;4919239;29;19927;-92
2021/07/10 09:20:23;;;;;;;;;;;;;;;;;;4919126;29;19927;-92
2021/07/10 09:22:52;;;;;;;;;;;;;;;;;;4917751;29;19927;-93
2021/07/10 09:25:24;;;;;;;;;;;;;;;;;;4918874;29;20401;-92
2021/07/10 09:27:55;;;;;;;;;;;;;;;;;;4934815;29;19946;-92
2021/07/10 09:30:32;;;;;;;;;;;;;;;;;;4920369;29;19926;-93
2021/07/10 09:33:27;;;;;;;;;;;;;;;;;;4926355;29;20011;-93
2021/07/10 09:36:01;;;;;;;;;;;;;;;;;;4939871;28;19927;-93
2021/07/10 09:44:18;;;;;;;;;;;;;;;;;;4943625;28;19915;-95
2021/07/10 10:43:41;;;;;;;;;;;;;;;;;;4945267;28;20406;-86
2021/07/10 10:49:37;;;;;;;;;;;;;;;;;;4929070;29;19939;-87
2021/07/10 10:52:33;;;;;;;;;;;;;;;;;;4926763;28;19911;-86
2021/07/10 10:55:05;;;;;;;;;;;;;;;;;;4957012;28;19914;-85
2021/07/10 10:57:36;;;;;;;;;;;;;;;;;;4937172;28;19927;-86
2021/07/10 11:00:09;;;;;;;;;;;;;;;;;;4945634;28;19937;-85
2021/07/10 11:02:52;;;;;;;;;;;;;;;;;;4918497;29;20324;-84
2021/07/10 11:05:49;;;;;;;;;;;;;;;;;;4931797;29;19927;-84
2021/07/10 11:08:35;;;;;;;;;;;;;;;;;;4917259;29;19944;-85
2021/07/10 11:11:18;;;;;;;;;;;;;;;;;;4931423;29;19950;-84
2021/07/10 11:14:02;;;;;;;;;;;;;;;;;;4916746;29;19927;-84
2021/07/10 11:16:33;;;;;;;;;;;;;;;;;;4946344;28;19950;-84
2021/07/10 11:19:03;;;;;;;;;;;;;;;;;;4934812;29;19934;-84
2021/07/10 11:21:48;;;;;;;;;;;;;;;;;;4924580;29;19926;-83
2021/07/10 11:24:21;;;;;;;;;;;;;;;;;;4920869;29;19927;-83
2021/07/10 11:27:08;;;;;;;;;;;;;;;;;;4939975;29;19931;-83
2021/07/10 11:29:37;;;;;;;;;;;;;;;;;;4920185;29;19934;-83
2021/07/10 11:32:18;;;;;;;;;;;;;;;;;;4924480;29;19931;-84
2021/07/10 11:34:48;;;;;;;;;;;;;;;;;;4932702;29;20321;-84
2021/07/10 11:37:18;;;;;;;;;;;;;;;;;;4930645;29;19938;-83
2021/07/10 11:39:48;;;;;;;;;;;;;;;;;;4926769;29;19935;-83
2021/07/10 11:42:35;;;;;;;;;;;;;;;;;;4914830;29;20287;-84
2021/07/10 11:45:28;;;;;;;;;;;;;;;;;;4944026;28;19934;-84
2021/07/10 11:48:02;;;;;;;;;;;;;;;;;;4943512;28;19934;-83
2021/07/10 11:50:33;;;;;;;;;;;;;;;;;;4937682;29;19927;-84
2021/07/10 11:53:03;;;;;;;;;;;;;;;;;;4918664;29;19927;-84
2021/07/10 11:55:32;;;;;;;;;;;;;;;;;;4920483;29;19930;-84
2021/07/10 11:58:05;;;;;;;;;;;;;;;;;;4919321;29;19927;-83
2021/07/10 12:00:34;;;;;;;;;;;;;;;;;;4938550;29;19927;-84
2021/07/10 12:03:04;;;;;;;;;;;;;;;;;;4928830;29;19934;-83
2021/07/10 12:05:37;;;;;;;;;;;;;;;;;;4932974;29;19927;-83
2021/07/10 12:08:07;;;;;;;;;;;;;;;;;;4929941;29;19934;-83
2021/07/10 12:10:37;;;;;;;;;;;;;;;;;;4923689;29;19933;-84
2021/07/10 12:13:08;;;;;;;;;;;;;;;;;;4937594;29;20406;-83
2021/07/10 12:15:38;;;;;;;;;;;;;;;;;;4931918;29;19927;-85
2021/07/10 12:18:09;;;;;;;;;;;;;;;;;;4931322;29;19928;-83
2021/07/10 12:20:39;;;;;;;;;;;;;;;;;;4948191;28;19927;-84
2021/07/10 12:23:10;;;;;;;;;;;;;;;;;;4942309;28;20322;-84
2021/07/10 12:25:43;;;;;;;;;;;;;;;;;;4922063;29;19941;-83
2021/07/10 12:28:18;;;;;;;;;;;;;;;;;;4930073;29;19926;-84
2021/07/10 12:30:48;;;;;;;;;;;;;;;;;;4919318;29;19927;-84
2021/07/10 12:33:35;;;;;;;;;;;;;;;;;;4930570;29;19926;-84
2021/07/10 12:36:14;;;;;;;;;;;;;;;;;;4926762;29;19942;-84
2021/07/10 12:38:50;;;;;;;;;;;;;;;;;;4934800;29;19927;-84
2021/07/10 12:41:19;;;;;;;;;;;;;;;;;;4927611;29;19926;-84
2021/07/10 12:43:48;;;;;;;;;;;;;;;;;;4922525;29;19933;-83
2021/07/10 12:46:19;;;;;;;;;;;;;;;;;;4918279;29;20306;-84
2021/07/10 12:48:48;;;;;;;;;;;;;;;;;;4919393;29;20405;-83
2021/07/10 12:51:20;;;;;;;;;;;;;;;;;;4906054;29;19996;-83
2021/07/10 12:53:51;;;;;;;;;;;;;;;;;;4916181;29;19927;-83
2021/07/10 12:59:47;;;;;;;;;;;;;;;;;;4913054;29;19938;-84
2021/07/10 13:02:23;;;;;;;;;;;;;;;;;;4917330;29;19935;-83
2021/07/10 13:04:53;;;;;;;;;;;;;;;;;;4910427;29;19938;-83
2021/07/10 13:07:26;;;;;;;;;;;;;;;;;;4925948;29;19950;-83
2021/07/10 13:09:57;;;;;;;;;;;;;;;;;;4922036;29;19927;-84
2021/07/10 13:12:40;;;;;;;;;;;;;;;;;;4920089;29;20182;-84
2021/07/10 13:15:10;;;;;;;;;;;;;;;;;;4905996;29;19937;-83
2021/07/10 13:17:40;;;;;;;;;;;;;;;;;;4911552;29;19935;-84
2021/07/10 13:20:28;;;;;;;;;;;;;;;;;;4911057;29;19926;-83
2021/07/10 13:22:59;;;;;;;;;;;;;;;;;;4918982;29;19935;-84
2021/07/10 13:25:33;;;;;;;;;;;;;;;;;;4910106;29;19930;-83
2021/07/10 13:28:16;;;;;;;;;;;;;;;;;;4922161;29;19931;-83
2021/07/10 13:30:45;;;;;;;;;;;;;;;;;;4900917;29;19931;-84
2021/07/10 13:33:14;;;;;;;;;;;;;;;;;;4922074;29;19927;-85
2021/07/10 13:35:44;;;;;;;;;;;;;;;;;;4907535;29;19935;-84
2021/07/10 13:38:18;;;;;;;;;;;;;;;;;;4923842;29;19926;-84
2021/07/10 13:40:50;;;;;;;;;;;;;;;;;;4910811;29;19938;-85
2021/07/10 13:43:24;;;;;;;;;;;;;;;;;;4914539;29;19930;-84
2021/07/10 13:46:11;;;;;;;;;;;;;;;;;;4943676;28;19927;-84
2021/07/10 13:48:40;;;;;;;;;;;;;;;;;;4943716;28;20007;-83
2021/07/10 13:51:09;;;;;;;;;;;;;;;;;;4949818;28;19928;-82
2021/07/10 13:53:43;;;;;;;;;;;;;;;;;;4929160;28;19927;-84
2021/07/10 13:56:18;;;;;;;;;;;;;;;;;;4930389;29;19934;-83
2021/07/10 13:58:58;;;;;;;;;;;;;;;;;;4940180;29;19927;-84
2021/07/10 14:01:26;;;;;;;;;;;;;;;;;;4935897;29;19927;-84
2021/07/10 14:03:55;;;;;;;;;;;;;;;;;;4923323;29;19926;-84
2021/07/10 14:06:24;;;;;;;;;;;;;;;;;;4933659;29;19950;-83
2021/07/10 14:08:54;;;;;;;;;;;;;;;;;;4922280;29;19938;-84
2021/07/10 14:11:23;;;;;;;;;;;;;;;;;;4924012;29;19934;-84
2021/07/10 14:13:52;;;;;;;;;;;;;;;;;;4923190;29;20315;-84
2021/07/10 14:16:21;;;;;;;;;;;;;;;;;;4938925;29;19927;-83
2021/07/10 14:18:49;;;;;;;;;;;;;;;;;;4945420;28;20406;-83
2021/07/10 14:21:18;;;;;;;;;;;;;;;;;;4933928;29;19927;-83
2021/07/10 14:23:46;;;;;;;;;;;;;;;;;;4918468;29;19927;-84
2021/07/10 14:26:16;;;;;;;;;;;;;;;;;;4920185;29;20312;-84
2021/07/10 14:28:44;;;;;;;;;;;;;;;;;;4938482;29;19954;-83
2021/07/10 14:31:12;;;;;;;;;;;;;;;;;;4942916;29;19935;-84
2021/07/10 14:33:41;;;;;;;;;;;;;;;;;;4922787;29;20005;-85
2021/07/10 14:36:09;;;;;;;;;;;;;;;;;;4929380;29;19935;-84
2021/07/10 14:38:38;;;;;;;;;;;;;;;;;;4934953;29;19927;-84
2021/07/10 14:41:08;;;;;;;;;;;;;;;;;;4935630;29;19927;-85
2021/07/10 14:43:38;;;;;;;;;;;;;;;;;;4930518;29;19951;-84
2021/07/10 14:46:08;;;;;;;;;;;;;;;;;;4919728;29;19942;-85
2021/07/10 14:48:37;;;;;;;;;;;;;;;;;;4919657;29;19934;-85
2021/07/10 14:51:06;;;;;;;;;;;;;;;;;;4939677;29;19934;-85
2021/07/10 14:53:35;;;;;;;;;;;;;;;;;;4918682;29;19949;-84
2021/07/10 14:56:05;;;;;;;;;;;;;;;;;;4926619;29;19935;-84
2021/07/10 14:58:34;;;;;;;;;;;;;;;;;;4908821;29;20390;-84
2021/07/10 15:01:05;;;;;;;;;;;;;;;;;;4930559;29;19927;-84
2021/07/10 15:03:35;;;;;;;;;;;;;;;;;;4931536;29;19933;-85
2021/07/10 15:06:04;;;;;;;;;;;;;;;;;;4929890;29;19938;-85
2021/07/10 15:08:33;;;;;;;;;;;;;;;;;;4940757;29;19939;-84
2021/07/10 15:11:01;;;;;;;;;;;;;;;;;;4919997;29;19933;-85
2021/07/10 15:13:31;;;;;;;;;;;;;;;;;;4917993;29;19950;-85
2021/07/10 15:16:04;;;;;;;;;;;;;;;;;;4925492;29;19934;-84
2021/07/10 15:18:35;;;;;;;;;;;;;;;;;;4931748;29;19930;-85
2021/07/10 15:21:05;;;;;;;;;;;;;;;;;;4939155;29;19972;-83
2021/07/10 15:23:34;;;;;;;;;;;;;;;;;;4928910;29;20379;-84
2021/07/10 15:26:03;;;;;;;;;;;;;;;;;;4915683;29;19927;-84
2021/07/10 15:28:32;;;;;;;;;;;;;;;;;;4925745;28;20330;-84
2021/07/10 15:31:01;;;;;;;;;;;;;;;;;;4925809;29;19938;-84
2021/07/10 15:33:31;;;;;;;;;;;;;;;;;;4932093;29;19926;-84
2021/07/10 15:36:00;;;;;;;;;;;;;;;;;;4927205;29;20375;-84
2021/07/10 15:38:30;;;;;;;;;;;;;;;;;;4909570;29;19931;-84
2021/07/10 15:40:59;;;;;;;;;;;;;;;;;;4908404;29;19949;-87
2021/07/10 15:43:27;;;;;;;;;;;;;;;;;;4914618;29;19934;-86
2021/07/10 15:45:55;;;;;;;;;;;;;;;;;;4927641;29;19938;-84
2021/07/10 15:48:24;;;;;;;;;;;;;;;;;;4929514;28;19927;-84
2021/07/10 15:50:53;;;;;;;;;;;;;;;;;;4911576;29;19927;-84
2021/07/10 15:53:23;;;;;;;;;;;;;;;;;;4923906;29;19946;-84
2021/07/10 15:55:54;;;;;;;;;;;;;;;;;;4927809;29;19926;-84
2021/07/10 15:58:22;;;;;;;;;;;;;;;;;;4914488;29;20363;-85
2021/07/10 16:00:52;;;;;;;;;;;;;;;;;;4914759;29;19927;-84
2021/07/10 16:03:21;;;;;;;;;;;;;;;;;;4924612;29;19942;-85
2021/07/10 16:05:52;;;;;;;;;;;;;;;;;;4916535;29;19934;-85
2021/07/10 16:08:21;;;;;;;;;;;;;;;;;;4927432;29;19934;-85
2021/07/10 16:10:51;;;;;;;;;;;;;;;;;;4919024;29;19933;-85
2021/07/10 16:13:23;;;;;;;;;;;;;;;;;;4922886;29;19927;-86
2021/07/10 16:15:53;;;;;;;;;;;;;;;;;;4937019;29;19927;-85
2021/07/10 16:18:23;;;;;;;;;;;;;;;;;;4917264;29;19927;-85
2021/07/10 16:20:52;;;;;;;;;;;;;;;;;;4912271;29;19938;-85
2021/07/10 16:23:21;;;;;;;;;;;;;;;;;;4922420;29;19950;-85
2021/07/10 16:25:55;;;;;;;;;;;;;;;;;;4928779;29;19935;-85
2021/07/10 16:28:26;;;;;;;;;;;;;;;;;;4915699;29;20022;-85
2021/07/10 16:31:00;;;;;;;;;;;;;;;;;;4909762;29;20410;-85
2021/07/10 16:33:35;;;;;;;;;;;;;;;;;;4920937;29;19927;-85
2021/07/10 16:36:10;;;;;;;;;;;;;;;;;;4925363;29;19927;-85
2021/07/10 16:38:41;;;;;;;;;;;;;;;;;;4923550;29;19927;-86
2021/07/10 16:41:11;;;;;;;;;;;;;;;;;;4913489;29;19926;-86
2021/07/10 16:43:39;;;;;;;;;;;;;;;;;;4933163;28;19915;-84
2021/07/10 16:46:08;;;;;;;;;;;;;;;;;;4935836;28;19915;-84
2021/07/10 16:48:36;;;;;;;;;;;;;;;;;;4920939;28;19927;-86
2021/07/10 16:51:04;;;;;;;;;;;;;;;;;;4925938;29;19927;-85
2021/07/10 16:53:34;;;;;;;;;;;;;;;;;;4945780;28;19937;-85
2021/07/10 16:56:02;;;;;;;;;;;;;;;;;;4936228;29;19935;-85
2021/07/10 16:58:32;;;;;;;;;;;;;;;;;;4928216;29;20083;-86
2021/07/10 17:01:03;;;;;;;;;;;;;;;;;;4916924;29;19927;-85
2021/07/10 17:03:32;;;;;;;;;;;;;;;;;;4911468;29;19935;-85
2021/07/10 17:06:00;;;;;;;;;;;;;;;;;;4920270;29;20394;-88
2021/07/10 17:08:29;;;;;;;;;;;;;;;;;;4928697;29;19926;-88
2021/07/10 17:10:58;;;;;;;;;;;;;;;;;;4933015;29;19935;-85
2021/07/10 17:13:26;;;;;;;;;;;;;;;;;;4918157;29;19942;-84
2021/07/10 17:15:56;;;;;;;;;;;;;;;;;;4921511;29;20443;-85
2021/07/10 17:18:25;;;;;;;;;;;;;;;;;;4939550;29;19931;-85
2021/07/10 17:20:54;;;;;;;;;;;;;;;;;;4913189;29;19926;-85
2021/07/10 17:23:22;;;;;;;;;;;;;;;;;;4927133;28;19926;-85
2021/07/10 17:25:51;;;;;;;;;;;;;;;;;;4913641;29;20322;-86
2021/07/10 17:28:19;;;;;;;;;;;;;;;;;;4910055;29;19926;-86
2021/07/10 17:30:48;;;;;;;;;;;;;;;;;;4926741;29;19930;-87
2021/07/10 17:33:18;;;;;;;;;;;;;;;;;;4921495;29;19950;-87
2021/07/10 17:35:46;;;;;;;;;;;;;;;;;;4910153;29;19931;-87
2021/07/10 17:38:14;;;;;;;;;;;;;;;;;;4934217;29;19927;-86
2021/07/10 17:40:43;;;;;;;;;;;;;;;;;;4915277;29;19935;-88
2021/07/10 17:43:11;;;;;;;;;;;;;;;;;;4920909;29;19927;-88
2021/07/10 17:45:39;;;;;;;;;;;;;;;;;;4916664;29;19938;-87
2021/07/10 17:48:08;;;;;;;;;;;;;;;;;;4925571;29;20249;-87
2021/07/10 17:50:38;;;;;;;;;;;;;;;;;;4929474;29;19962;-88
2021/07/10 17:53:06;;;;;;;;;;;;;;;;;;4930542;29;19934;-88
2021/07/10 17:55:34;;;;;;;;;;;;;;;;;;4925782;29;19927;-87
2021/07/10 17:58:03;;;;;;;;;;;;;;;;;;4926995;29;19938;-88
2021/07/10 18:00:31;;;;;;;;;;;;;;;;;;4929457;29;19927;-88
2021/07/10 18:03:00;;;;;;;;;;;;;;;;;;4910071;29;19941;-89
2021/07/10 18:05:28;;;;;;;;;;;;;;;;;;4922498;29;19950;-89
2021/07/10 18:07:58;;;;;;;;;;;;;;;;;;4924414;29;19934;-89
2021/07/10 18:10:26;;;;;;;;;;;;;;;;;;4927418;29;19927;-88
2021/07/10 18:12:54;;;;;;;;;;;;;;;;;;4913010;29;19931;-89
2021/07/10 18:15:23;;;;;;;;;;;;;;;;;;4907867;29;19930;-89
2021/07/10 18:17:51;;;;;;;;;;;;;;;;;;4915100;29;19938;-88
2021/07/10 18:20:20;;;;;;;;;;;;;;;;;;4924708;29;20302;-89
2021/07/10 18:22:48;;;;;;;;;;;;;;;;;;4941664;28;20457;-88
2021/07/10 18:25:18;;;;;;;;;;;;;;;;;;4916698;29;19942;-88
2021/07/10 18:27:46;;;;;;;;;;;;;;;;;;4927616;29;20383;-88
2021/07/10 18:30:15;;;;;;;;;;;;;;;;;;4926034;29;20334;-88
2021/07/10 18:32:44;;;;;;;;;;;;;;;;;;4918276;29;20298;-89
2021/07/10 18:35:13;;;;;;;;;;;;;;;;;;4926821;29;19954;-88
2021/07/10 18:37:41;;;;;;;;;;;;;;;;;;4926944;29;19934;-89
2021/07/10 18:40:14;;;;;;;;;;;;;;;;;;4917005;29;20387;-90
2021/07/10 18:42:44;;;;;;;;;;;;;;;;;;4930970;29;19934;-87
2021/07/10 18:45:13;;;;;;;;;;;;;;;;;;4921325;29;19934;-89
2021/07/10 18:47:41;;;;;;;;;;;;;;;;;;4910206;29;19942;-88
2021/07/10 18:50:10;;;;;;;;;;;;;;;;;;4932524;29;19935;-88
2021/07/10 18:52:38;;;;;;;;;;;;;;;;;;4924907;29;19931;-88
2021/07/10 18:55:07;;;;;;;;;;;;;;;;;;4917762;29;19930;-88
2021/07/10 18:57:35;;;;;;;;;;;;;;;;;;4945717;28;19934;-89
2021/07/10 19:00:06;;;;;;;;;;;;;;;;;;4929709;29;19942;-88
2021/07/10 19:02:34;;;;;;;;;;;;;;;;;;4936043;28;19927;-89
2021/07/10 19:05:02;;;;;;;;;;;;;;;;;;4904602;29;20314;-87
2021/07/10 19:07:30;;;;;;;;;;;;;;;;;;4921655;29;20110;-89
2021/07/10 19:09:59;;;;;;;;;;;;;;;;;;4931391;29;19930;-89
2021/07/10 19:12:27;;;;;;;;;;;;;;;;;;4933069;28;20310;-87
2021/07/10 19:14:55;;;;;;;;;;;;;;;;;;4938185;29;19935;-90
2021/07/10 19:17:25;;;;;;;;;;;;;;;;;;4948977;29;19937;-88
2021/07/10 19:19:59;;;;;;;;;;;;;;;;;;4932038;29;19941;-88
2021/07/10 19:22:28;;;;;;;;;;;;;;;;;;4940356;28;20536;-90
2021/07/10 19:24:56;;;;;;;;;;;;;;;;;;4942492;28;19928;-89
2021/07/10 19:27:24;;;;;;;;;;;;;;;;;;4934705;29;20302;-89
2021/07/10 19:29:53;;;;;;;;;;;;;;;;;;4911712;29;19938;-88
2021/07/10 19:32:27;;;;;;;;;;;;;;;;;;4917189;29;19927;-89
2021/07/10 19:34:56;;;;;;;;;;;;;;;;;;4919503;29;19933;-90
2021/07/10 19:37:24;;;;;;;;;;;;;;;;;;4952756;28;19991;-92
2021/07/10 19:39:53;;;;;;;;;;;;;;;;;;4956045;28;19942;-92
2021/07/10 19:42:22;;;;;;;;;;;;;;;;;;4938754;28;20318;-87
2021/07/10 19:44:50;;;;;;;;;;;;;;;;;;4916754;29;19934;-88
2021/07/10 19:47:19;;;;;;;;;;;;;;;;;;4916355;29;19927;-87
2021/07/10 19:49:53;;;;;;;;;;;;;;;;;;4924477;29;19927;-90
2021/07/10 19:52:23;;;;;;;;;;;;;;;;;;4924824;29;19928;-88
2021/07/10 19:54:55;;;;;;;;;;;;;;;;;;4917007;29;19927;-89
2021/07/10 19:57:50;;;;;;;;;;;;;;;;;;4915237;29;20394;-87
2021/07/10 20:00:20;;;;;;;;;;;;;;;;;;4918542;29;19954;-89
2021/07/10 20:02:49;;;;;;;;;;;;;;;;;;4924311;29;20326;-90
2021/07/10 20:05:19;;;;;;;;;;;;;;;;;;4932269;29;19930;-93
2021/07/10 20:07:48;;;;;;;;;;;;;;;;;;4924916;29;20390;-91
2021/07/10 20:10:18;;;;;;;;;;;;;;;;;;4927714;29;19926;-92
2021/07/10 20:12:47;;;;;;;;;;;;;;;;;;4925157;29;20305;-92
2021/07/10 20:15:16;;;;;;;;;;;;;;;;;;4922832;29;19938;-90
2021/07/10 20:17:45;;;;;;;;;;;;;;;;;;4940344;28;19934;-88
2021/07/10 20:20:13;;;;;;;;;;;;;;;;;;4913365;29;19933;-90
2021/07/10 20:22:43;;;;;;;;;;;;;;;;;;4936054;29;19928;-90
2021/07/10 20:25:13;;;;;;;;;;;;;;;;;;4918539;29;19934;-88
2021/07/10 20:27:41;;;;;;;;;;;;;;;;;;4929328;29;20011;-88
2021/07/10 20:30:10;;;;;;;;;;;;;;;;;;4935566;29;19938;-90
2021/07/10 20:32:39;;;;;;;;;;;;;;;;;;4939358;28;19926;-91
2021/07/10 20:35:08;;;;;;;;;;;;;;;;;;4915525;29;19927;-89
2021/07/10 20:37:36;;;;;;;;;;;;;;;;;;4927156;29;20004;-91
2021/07/10 20:40:22;;;;;;;;;;;;;;;;;;4916685;29;19931;-89
2021/07/10 20:42:52;;;;;;;;;;;;;;;;;;4933825;29;22469;-92
2021/07/10 20:45:21;;;;;;;;;;;;;;;;;;4919818;29;19931;-91
2021/07/10 20:47:49;;;;;;;;;;;;;;;;;;4933722;29;19927;-88
2021/07/10 20:50:23;;;;;;;;;;;;;;;;;;4937698;29;19931;-88
2021/07/10 20:52:52;;;;;;;;;;;;;;;;;;4917946;29;19927;-89
2021/07/10 20:55:21;;;;;;;;;;;;;;;;;;4933793;29;19949;-86
2021/07/10 20:57:50;;;;;;;;;;;;;;;;;;4912738;29;19927;-88
2021/07/10 21:00:20;;;;;;;;;;;;;;;;;;4939802;29;19926;-89
2021/07/10 21:02:48;;;;;;;;;;;;;;;;;;4934057;29;19934;-89
2021/07/10 21:05:16;;;;;;;;;;;;;;;;;;4922788;29;19934;-88
2021/07/10 21:07:45;;;;;;;;;;;;;;;;;;4916767;29;19927;-92
2021/07/10 21:10:14;;;;;;;;;;;;;;;;;;4932763;29;19949;-91
2021/07/10 21:12:44;;;;;;;;;;;;;;;;;;4931450;29;20350;-89
2021/07/10 21:15:13;;;;;;;;;;;;;;;;;;4930678;29;19927;-88
2021/07/10 21:17:44;;;;;;;;;;;;;;;;;;4914506;29;20378;-90
2021/07/10 21:20:27;;;;;;;;;;;;;;;;;;4912616;29;20258;-90
2021/07/10 21:24:05;;;;;;;;;;;;;;;;;;4933486;29;19938;-89
2021/07/10 21:27:58;;;;;;;;;;;;;;;;;;4904109;29;19927;-92
2021/07/10 21:30:48;;;;;;;;;;;;;;;;;;4932760;29;19926;-90
2021/07/10 21:33:45;;;;;;;;;;;;;;;;;;4920481;23;20176;-91
2021/07/10 21:36:13;;;;;;;;;;;;;;;;;;4906197;29;20314;-88
2021/07/10 21:38:41;;;;;;;;;;;;;;;;;;4917252;29;19926;-86
2021/07/10 21:41:12;;;;;;;;;;;;;;;;;;4915113;29;19935;-89
2021/07/10 21:43:40;;;;;;;;;;;;;;;;;;4916329;29;20431;-89
2021/07/10 21:46:10;;;;;;;;;;;;;;;;;;4916659;29;20401;-86
2021/07/10 21:48:38;;;;;;;;;;;;;;;;;;4911979;29;19932;-87
2021/07/10 21:51:07;;;;;;;;;;;;;;;;;;4920355;29;19938;-89
2021/07/10 21:53:36;;;;;;;;;;;;;;;;;;4925159;29;19957;-93
2021/07/10 21:56:04;;;;;;;;;;;;;;;;;;4926516;29;20382;-91
2021/07/10 21:58:33;;;;;;;;;;;;;;;;;;4923888;29;19934;-92
2021/07/10 22:01:16;;;;;;;;;;;;;;;;;;4921549;29;19935;-92
2021/07/10 22:03:46;;;;;;;;;;;;;;;;;;4908827;29;19927;-92
2021/07/10 22:06:14;;;;;;;;;;;;;;;;;;4920528;29;19927;-91
2021/07/10 22:08:42;;;;;;;;;;;;;;;;;;4910502;29;19935;-91
2021/07/10 22:11:11;;;;;;;;;;;;;;;;;;4940557;29;19935;-93
2021/07/10 22:13:39;;;;;;;;;;;;;;;;;;4912638;29;19938;-90
2021/07/10 22:16:08;;;;;;;;;;;;;;;;;;4923035;29;20313;-90
2021/07/10 22:18:37;;;;;;;;;;;;;;;;;;4922586;29;19927;-91
2021/07/10 22:21:06;;;;;;;;;;;;;;;;;;4924262;29;19927;-94
2021/07/10 22:23:35;;;;;;;;;;;;;;;;;;4924296;29;19927;-93
2021/07/10 22:26:03;;;;;;;;;;;;;;;;;;4934834;29;19927;-91
2021/07/10 22:28:31;;;;;;;;;;;;;;;;;;4924540;29;20349;-94
2021/07/10 22:30:59;;;;;;;;;;;;;;;;;;4943435;28;19934;-94
2021/07/10 22:33:28;;;;;;;;;;;;;;;;;;4943978;28;19921;-94
2021/07/10 22:35:57;;;;;;;;;;;;;;;;;;4936602;28;19927;-93
2021/07/10 22:38:27;;;;;;;;;;;;;;;;;;4923653;29;19927;-93
2021/07/10 22:40:55;;;;;;;;;;;;;;;;;;4923066;29;19927;-92
2021/07/10 22:43:24;;;;;;;;;;;;;;;;;;4904455;29;19928;-93
2021/07/10 22:45:52;;;;;;;;;;;;;;;;;;4902131;29;19950;-92
2021/07/10 22:48:20;;;;;;;;;;;;;;;;;;4903692;29;19934;-93
2021/07/10 22:50:48;;;;;;;;;;;;;;;;;;4920067;29;19931;-93
2021/07/10 22:53:17;;;;;;;;;;;;;;;;;;4919364;29;20294;-91
2021/07/10 22:55:47;;;;;;;;;;;;;;;;;;4923710;29;19928;-91
2021/07/10 22:58:16;;;;;;;;;;;;;;;;;;4923748;29;19935;-92
2021/07/10 23:00:45;;;;;;;;;;;;;;;;;;4919418;29;19927;-93
2021/07/10 23:03:13;;;;;;;;;;;;;;;;;;4919593;29;20420;-92
2021/07/10 23:05:42;;;;;;;;;;;;;;;;;;4921193;29;19935;-93
2021/07/10 23:08:10;;;;;;;;;;;;;;;;;;4935271;28;19935;-93
2021/07/10 23:10:38;;;;;;;;;;;;;;;;;;4920107;29;19927;-91
2021/07/10 23:13:08;;;;;;;;;;;;;;;;;;4920179;29;19927;-92
2021/07/10 23:15:38;;;;;;;;;;;;;;;;;;4922838;29;19953;-93
2021/07/10 23:18:07;;;;;;;;;;;;;;;;;;4918531;29;19927;-91
2021/07/10 23:20:35;;;;;;;;;;;;;;;;;;4917707;29;19927;-92
2021/07/10 23:23:04;;;;;;;;;;;;;;;;;;4919537;29;19951;-91
2021/07/10 23:25:32;;;;;;;;;;;;;;;;;;4917787;29;20336;-90
2021/07/10 23:28:01;;;;;;;;;;;;;;;;;;4920547;29;20282;-90
2021/07/10 23:30:30;;;;;;;;;;;;;;;;;;4918150;29;19927;-91
2021/07/10 23:33:02;;;;;;;;;;;;;;;;;;4916925;29;19935;-90
2021/07/10 23:35:31;;;;;;;;;;;;;;;;;;4915713;29;20357;-92
2021/07/10 23:37:59;;;;;;;;;;;;;;;;;;4915741;29;19928;-92
2021/07/10 23:40:28;;;;;;;;;;;;;;;;;;4940738;29;19949;-92
2021/07/10 23:42:56;;;;;;;;;;;;;;;;;;4938403;29;19935;-92
2021/07/10 23:45:26;;;;;;;;;;;;;;;;;;4937072;29;19943;-91
2021/07/10 23:47:59;;;;;;;;;;;;;;;;;;4923594;29;19927;-92
2021/07/10 23:50:27;;;;;;;;;;;;;;;;;;4926229;29;20001;-91
2021/07/10 23:52:56;;;;;;;;;;;;;;;;;;4919705;29;19927;-91
2021/07/10 23:55:24;;;;;;;;;;;;;;;;;;4906184;29;19927;-93
2021/07/10 23:57:53;;;;;;;;;;;;;;;;;;4922060;29;19935;-92
